createdAt,value
2019-01-09T00:01:04.942Z,98466.71
2019-01-09T00:03:34.831Z,98462.83
2019-01-09T00:06:04.632Z,98462.70
2019-01-09T00:08:34.183Z,98463.33
2019-01-09T00:11:04.065Z,98471.20
2019-01-09T00:13:33.628Z,98471.12
2019-01-09T00:16:05.251Z,98473.28
2019-01-09T00:18:34.827Z,98472.17
2019-01-09T00:21:04.616Z,98467.48
2019-01-09T00:23:34.152Z,98467.84
2019-01-09T00:26:03.768Z,98458.61
2019-01-09T00:28:33.492Z,98456.09
2019-01-09T00:31:03.309Z,98455.94
2019-01-09T00:33:32.993Z,98454.19
2019-01-09T00:36:02.650Z,98462.33
2019-01-09T00:38:32.555Z,98458.48
2019-01-09T00:41:02.322Z,98457.30
2019-01-09T00:43:31.824Z,98457.74
2019-01-09T00:46:01.470Z,98453.79
2019-01-09T00:48:31.433Z,98456.85
2019-01-09T00:51:01.128Z,98459.29
2019-01-09T00:53:30.878Z,98458.46
2019-01-09T00:56:00.594Z,98458.98
2019-01-09T00:58:30.322Z,98455.76
2019-01-09T01:01:00.032Z,98449.81
2019-01-09T01:06:13.486Z,98449.33
2019-01-09T01:08:47.496Z,98456.87
2019-01-09T01:14:02.879Z,98452.25
2019-01-09T01:16:36.902Z,98449.62
2019-01-09T01:19:11.283Z,98458.86
2019-01-09T01:21:45.295Z,98456.95
2019-01-09T01:24:19.383Z,98452.97
2019-01-09T01:26:53.422Z,98456.58
2019-01-09T01:29:27.474Z,98457.13
2019-01-09T01:32:01.514Z,98457.72
2019-01-09T01:34:36.271Z,98450.99
2019-01-09T01:37:10.283Z,98452.52
2019-01-09T01:39:44.340Z,98453.32
2019-01-09T01:45:04.585Z,98450.17
2019-01-09T01:47:38.607Z,98450.37
2019-01-09T01:50:13.095Z,98448.86
2019-01-09T01:52:47.133Z,98452.97
2019-01-09T01:55:21.152Z,98450.59
2019-01-09T01:57:55.163Z,98451.61
2019-01-09T02:00:29.592Z,98459.45
2019-01-09T02:03:03.972Z,98449.42
2019-01-09T02:05:38.229Z,98452.70
2019-01-09T02:08:12.265Z,98442.66
2019-01-09T02:11:04.102Z,98447.17
2019-01-09T02:13:39.157Z,98443.64
2019-01-09T02:16:13.216Z,98438.37
2019-01-09T02:18:47.255Z,98446.77
2019-01-09T02:21:21.327Z,98447.48
2019-01-09T02:23:55.376Z,98447.99
2019-01-09T02:26:47.580Z,98453.35
2019-01-09T02:29:21.592Z,98447.72
2019-01-09T02:31:56.045Z,98448.83
2019-01-09T02:34:44.902Z,98383.94
2019-01-09T02:37:14.490Z,98444.14
2019-01-09T02:39:44.150Z,98436.58
2019-01-09T02:42:13.725Z,98430.42
2019-01-09T02:44:43.308Z,98437.73
2019-01-09T02:47:12.896Z,98428.90
2019-01-09T02:49:42.501Z,98428.34
2019-01-09T02:52:13.553Z,98428.59
2019-01-09T02:54:43.135Z,98427.66
2019-01-09T02:57:12.786Z,98428.55
2019-01-09T02:59:42.701Z,98419.83
2019-01-09T03:02:12.398Z,98415.33
2019-01-09T03:04:43.510Z,98420.30
2019-01-09T03:07:13.313Z,98421.89
2019-01-09T03:09:42.852Z,98416.94
2019-01-09T03:12:12.500Z,98421.69
2019-01-09T03:14:42.369Z,98418.37
2019-01-09T03:17:11.989Z,98419.32
2019-01-09T03:19:41.580Z,98414.59
2019-01-09T03:22:11.156Z,98409.89
2019-01-09T03:24:40.716Z,98405.17
2019-01-09T03:27:10.301Z,98412.53
2019-01-09T03:29:39.876Z,98406.37
2019-01-09T03:32:09.445Z,98409.16
2019-01-09T03:34:38.992Z,98403.66
2019-01-09T03:37:08.875Z,98400.79
2019-01-09T03:39:38.439Z,98398.91
2019-01-09T03:42:07.938Z,98397.59
2019-01-09T03:44:37.495Z,98410.02
2019-01-09T03:47:26.353Z,98405.01
2019-01-09T03:49:55.962Z,98408.06
2019-01-09T03:52:25.541Z,98404.80
2019-01-09T03:54:55.102Z,98400.11
2019-01-09T03:57:24.696Z,98406.10
2019-01-09T03:59:54.287Z,98400.52
2019-01-09T04:02:23.869Z,98403.77
2019-01-09T04:04:53.541Z,98400.02
2019-01-09T04:07:23.112Z,98406.37
2019-01-09T04:09:52.692Z,98401.88
2019-01-09T04:12:22.821Z,98402.67
2019-01-09T04:14:52.422Z,98386.36
2019-01-09T04:17:21.983Z,98383.67
2019-01-09T04:19:53.791Z,98382.82
2019-01-09T04:22:23.344Z,98382.63
2019-01-09T04:24:52.898Z,98378.53
2019-01-09T04:27:22.496Z,98370.72
2019-01-09T04:29:52.056Z,98366.62
2019-01-09T04:32:21.645Z,98371.58
2019-01-09T04:34:51.218Z,98367.27
2019-01-09T04:37:20.797Z,98366.06
2019-01-09T04:39:50.381Z,98364.09
2019-01-09T04:42:19.944Z,98362.69
2019-01-09T04:44:49.541Z,98358.82
2019-01-09T04:47:19.114Z,98356.71
2019-01-09T04:49:48.963Z,98351.82
2019-01-09T04:52:18.529Z,98358.28
2019-01-09T04:54:48.123Z,98348.03
2019-01-09T04:57:17.717Z,98344.96
2019-01-09T04:59:47.275Z,98345.86
2019-01-09T05:02:16.860Z,98347.27
2019-01-09T05:04:49.398Z,98341.05
2019-01-09T05:07:19.243Z,98341.88
2019-01-09T05:09:48.796Z,98341.35
2019-01-09T05:12:18.412Z,98344.49
2019-01-09T05:14:47.995Z,98355.76
2019-01-09T05:17:17.727Z,98353.36
2019-01-09T05:19:47.337Z,98356.86
2019-01-09T05:22:16.887Z,98355.60
2019-01-09T05:24:46.574Z,98354.90
2019-01-09T05:27:16.559Z,98351.16
2019-01-09T05:29:46.192Z,98347.66
2019-01-09T05:32:15.757Z,98350.09
2019-01-09T05:34:45.373Z,98350.38
2019-01-09T05:37:14.959Z,98353.70
2019-01-09T05:39:44.536Z,98358.10
2019-01-09T05:42:14.132Z,98361.06
2019-01-09T05:44:43.753Z,98367.78
2019-01-09T05:47:13.346Z,98364.51
2019-01-09T05:49:42.933Z,98368.59
2019-01-09T05:52:12.486Z,98368.80
2019-01-09T05:54:42.035Z,98372.09
2019-01-09T05:57:11.640Z,98370.51
2019-01-09T05:59:41.292Z,98372.76
2019-01-09T06:02:10.889Z,98375.53
2019-01-09T06:04:40.465Z,98374.50
2019-01-09T06:07:18.076Z,98364.32
2019-01-09T06:09:41.353Z,98373.70
2019-01-09T06:12:16.814Z,98362.23
2019-01-09T06:14:46.496Z,98350.91
2019-01-09T06:17:16.114Z,98355.92
2019-01-09T06:19:45.715Z,98361.98
2019-01-09T06:22:21.140Z,98361.50
2019-01-09T06:24:51.247Z,98363.32
2019-01-09T06:27:20.914Z,98360.74
2019-01-09T06:29:50.448Z,98356.41
2019-01-09T06:32:20.061Z,98352.39
2019-01-09T06:34:50.508Z,98347.27
2019-01-09T06:37:27.332Z,98338.11
2019-01-09T06:39:51.659Z,98342.56
2019-01-09T06:42:21.225Z,98347.75
2019-01-09T06:44:50.806Z,98360.17
2019-01-09T06:47:21.784Z,98363.16
2019-01-09T06:49:51.345Z,98369.23
2019-01-09T06:52:21.038Z,98366.34
2019-01-09T06:54:50.640Z,98363.94
2019-01-09T06:57:20.184Z,98371.20
2019-01-09T06:59:49.780Z,98373.06
2019-01-09T07:02:19.367Z,98368.02
2019-01-09T07:04:48.954Z,98372.13
2019-01-09T07:07:18.575Z,98370.94
2019-01-09T07:09:48.180Z,98381.28
2019-01-09T07:12:17.753Z,98386.98
2019-01-09T07:14:47.299Z,98398.44
2019-01-09T07:17:17.207Z,98400.52
2019-01-09T07:19:46.801Z,98398.31
2019-01-09T07:22:16.351Z,98405.76
2019-01-09T07:24:45.985Z,98410.75
2019-01-09T07:27:15.564Z,98413.95
2019-01-09T07:29:45.238Z,98420.19
2019-01-09T07:32:14.862Z,98418.28
2019-01-09T07:34:44.444Z,98414.59
2019-01-09T07:37:14.034Z,98400.47
2019-01-09T07:39:43.615Z,98399.30
2019-01-09T07:42:13.183Z,98397.03
2019-01-09T07:44:42.797Z,98398.42
2019-01-09T07:47:12.799Z,98401.73
2019-01-09T07:49:42.556Z,98403.66
2019-01-09T07:52:12.151Z,98405.83
2019-01-09T07:54:47.598Z,98412.84
2019-01-09T07:57:17.015Z,98425.70
2019-01-09T07:59:46.889Z,98431.32
2019-01-09T08:02:16.518Z,98435.00
2019-01-09T08:04:46.064Z,98434.94
2019-01-09T08:07:15.833Z,98439.66
2019-01-09T08:09:45.444Z,98436.33
2019-01-09T08:12:15.056Z,98433.70
2019-01-09T08:14:44.634Z,98430.37
2019-01-09T08:17:14.217Z,98432.55
2019-01-09T08:19:43.803Z,98431.84
2019-01-09T08:22:13.381Z,98431.52
2019-01-09T08:24:42.984Z,98434.83
2019-01-09T08:27:18.608Z,98375.21
2019-01-09T08:29:48.167Z,98431.15
2019-01-09T08:32:18.128Z,98430.65
2019-01-09T08:34:47.759Z,98433.38
2019-01-09T08:37:17.336Z,98437.80
2019-01-09T08:39:46.933Z,98438.28
2019-01-09T08:42:16.655Z,98435.45
2019-01-09T08:44:46.237Z,98445.03
2019-01-09T08:47:15.832Z,98446.67
2019-01-09T08:49:45.409Z,98444.92
2019-01-09T08:52:14.980Z,98456.83
2019-01-09T08:54:44.597Z,98456.36
2019-01-09T08:57:14.181Z,98456.34
2019-01-09T08:59:43.765Z,98456.34
2019-01-09T09:02:13.754Z,98456.53
2019-01-09T09:04:43.340Z,98454.77
2019-01-09T09:07:12.903Z,98457.48
2019-01-09T09:09:42.678Z,98461.12
2019-01-09T09:12:12.238Z,98462.45
2019-01-09T09:14:41.897Z,98463.34
2019-01-09T09:17:11.484Z,98463.88
2019-01-09T09:19:41.068Z,98468.59
2019-01-09T09:22:10.689Z,98471.55
2019-01-09T09:24:40.287Z,98473.45
2019-01-09T09:27:09.911Z,98482.32
2019-01-09T09:29:39.494Z,98485.39
2019-01-09T09:32:08.891Z,98483.66
2019-01-09T09:34:38.780Z,98493.45
2019-01-09T09:37:08.441Z,98487.42
2019-01-09T09:39:38.020Z,98489.59
2019-01-09T09:42:07.655Z,98493.20
2019-01-09T09:44:37.241Z,98490.61
2019-01-09T09:47:06.868Z,98483.64
2019-01-09T09:49:36.456Z,98484.47
2019-01-09T09:52:06.080Z,98469.77
2019-01-09T09:54:35.720Z,98460.02
2019-01-09T09:57:05.401Z,98460.66
2019-01-09T09:59:36.563Z,98462.45
2019-01-09T10:02:09.842Z,98462.09
2019-01-09T10:04:41.150Z,98464.96
2019-01-09T10:07:10.711Z,98481.70
2019-01-09T10:09:40.456Z,98484.37
2019-01-09T10:12:10.144Z,98485.55
2019-01-09T10:14:39.707Z,98479.61
2019-01-09T10:17:09.408Z,98487.11
2019-01-09T10:19:40.269Z,98489.53
2019-01-09T10:22:09.860Z,98490.08
2019-01-09T10:24:39.456Z,98495.38
2019-01-09T10:27:09.049Z,98500.14
2019-01-09T10:29:38.634Z,98502.42
2019-01-09T10:32:08.686Z,98501.33
2019-01-09T10:34:38.352Z,98497.37
2019-01-09T10:37:08.009Z,98491.50
2019-01-09T10:39:37.634Z,98488.81
2019-01-09T10:42:08.270Z,98487.80
2019-01-09T10:44:38.108Z,98480.38
2019-01-09T10:47:08.018Z,98487.52
2019-01-09T10:49:37.691Z,98486.62
2019-01-09T10:52:07.273Z,98486.04
2019-01-09T10:54:36.882Z,98492.95
2019-01-09T10:57:06.871Z,98498.47
2019-01-09T10:59:36.449Z,98490.63
2019-01-09T11:02:06.371Z,98493.96
2019-01-09T11:04:35.945Z,98491.50
2019-01-09T11:07:05.360Z,98480.70
2019-01-09T11:09:34.967Z,98483.02
2019-01-09T11:12:04.879Z,98463.72
2019-01-09T11:14:34.477Z,98476.46
2019-01-09T11:17:04.149Z,98468.20
2019-01-09T11:19:33.733Z,98468.00
2019-01-09T11:22:03.317Z,98470.79
2019-01-09T11:24:33.062Z,98465.42
2019-01-09T11:27:02.668Z,98468.50
2019-01-09T11:29:32.262Z,98480.16
2019-01-09T11:32:01.837Z,98486.31
2019-01-09T11:34:32.922Z,98483.19
2019-01-09T11:37:02.473Z,98486.52
2019-01-09T11:39:32.132Z,98474.77
2019-01-09T11:42:12.206Z,98464.03
2019-01-09T11:44:41.816Z,98474.67
2019-01-09T11:47:11.561Z,98460.81
2019-01-09T11:49:41.101Z,98457.70
2019-01-09T11:52:16.859Z,98471.45
2019-01-09T11:54:46.532Z,98465.75
2019-01-09T11:57:16.540Z,98465.66
2019-01-09T11:59:46.147Z,98454.73
2019-01-09T12:02:22.019Z,98454.84
2019-01-09T12:04:47.012Z,98457.78
2019-01-09T12:07:16.719Z,98463.44
2019-01-09T12:09:46.275Z,98465.62
2019-01-09T12:12:15.838Z,98453.87
2019-01-09T12:14:45.429Z,98460.20
2019-01-09T12:17:15.112Z,98460.45
2019-01-09T12:19:44.696Z,98449.75
2019-01-09T12:22:20.252Z,98454.42
2019-01-09T12:24:49.823Z,98455.26
2019-01-09T12:27:19.408Z,98446.45
2019-01-09T12:29:49.019Z,98446.35
2019-01-09T12:32:18.570Z,98444.91
2019-01-09T12:34:48.150Z,98431.23
2019-01-09T12:37:17.753Z,98436.90
2019-01-09T12:39:47.343Z,98441.80
2019-01-09T12:42:16.892Z,98445.25
2019-01-09T12:44:46.515Z,98428.21
2019-01-09T12:47:16.270Z,98445.78
2019-01-09T12:49:45.823Z,98442.48
2019-01-09T12:52:15.467Z,98437.05
2019-01-09T12:54:45.413Z,98441.27
2019-01-09T12:57:15.034Z,98440.52
2019-01-09T12:59:44.655Z,98448.91
2019-01-09T13:02:14.234Z,98439.00
2019-01-09T13:04:43.936Z,98448.73
2019-01-09T13:07:13.579Z,98449.45
2019-01-09T13:09:43.257Z,98449.26
2019-01-09T13:12:12.905Z,98449.80
2019-01-09T13:14:42.472Z,98448.36
2019-01-09T13:17:12.332Z,98454.27
2019-01-09T13:19:43.636Z,98451.89
2019-01-09T13:22:13.652Z,98453.01
2019-01-09T13:24:43.253Z,98453.98
2019-01-09T13:27:14.308Z,98459.28
2019-01-09T13:29:44.116Z,98452.14
2019-01-09T13:32:14.167Z,98453.54
2019-01-09T13:34:43.748Z,98453.39
2019-01-09T13:37:13.374Z,98450.22
2019-01-09T13:40:02.321Z,98449.39
2019-01-09T13:42:33.553Z,98447.16
2019-01-09T13:45:03.828Z,98455.72
2019-01-09T13:47:33.440Z,98467.41
2019-01-09T13:50:03.708Z,98455.17
2019-01-09T13:52:33.315Z,98460.09
2019-01-09T13:55:03.068Z,98461.05
2019-01-09T13:57:32.666Z,98458.81
2019-01-09T14:00:02.306Z,98460.17
2019-01-09T14:02:34.307Z,98463.23
2019-01-09T14:05:06.246Z,98466.82
2019-01-09T14:07:35.902Z,98466.28
2019-01-09T14:10:11.013Z,98463.04
2019-01-09T14:12:40.788Z,98464.75
2019-01-09T14:15:15.347Z,98464.77
2019-01-09T14:17:44.906Z,98467.59
2019-01-09T14:20:15.514Z,98464.89
2019-01-09T14:22:46.716Z,98474.53
2019-01-09T14:25:18.413Z,98471.56
2019-01-09T14:27:48.086Z,98476.95
2019-01-09T14:30:22.015Z,98475.02
2019-01-09T14:32:51.595Z,98486.17
2019-01-09T14:35:21.508Z,98482.41
2019-01-09T14:37:51.093Z,98494.52
2019-01-09T14:40:22.063Z,98489.61
2019-01-09T14:42:51.797Z,98499.35
2019-01-09T14:45:21.551Z,98500.34
2019-01-09T14:47:51.133Z,98505.67
2019-01-09T14:50:24.107Z,98506.92
2019-01-09T14:52:53.925Z,98509.55
2019-01-09T14:55:23.742Z,98508.08
2019-01-09T14:57:53.813Z,98512.61
2019-01-09T15:00:26.588Z,98507.93
2019-01-09T15:02:56.245Z,98513.19
2019-01-09T15:05:25.980Z,98512.45
2019-01-09T15:07:55.650Z,98518.62
2019-01-09T15:10:28.243Z,98525.51
2019-01-09T15:12:58.611Z,98523.64
2019-01-09T15:15:28.931Z,98520.25
2019-01-09T15:17:59.999Z,98523.56
2019-01-09T15:20:29.598Z,98522.48
2019-01-09T15:22:59.168Z,98534.80
2019-01-09T15:25:28.937Z,98535.45
2019-01-09T15:27:58.642Z,98538.46
2019-01-09T15:30:30.405Z,98540.00
2019-01-09T15:32:59.975Z,98546.11
2019-01-09T15:35:29.673Z,98546.83
2019-01-09T15:38:00.761Z,98548.05
2019-01-09T15:40:31.238Z,98546.95
2019-01-09T15:43:00.993Z,98547.84
2019-01-09T15:45:30.708Z,98556.67
2019-01-09T15:48:00.202Z,98552.20
2019-01-09T15:50:30.084Z,98549.98
2019-01-09T15:52:59.631Z,98557.60
2019-01-09T15:55:29.261Z,98556.70
2019-01-09T15:57:59.351Z,98555.23
2019-01-09T16:00:33.614Z,98555.97
2019-01-09T16:03:04.106Z,98555.63
2019-01-09T16:05:33.916Z,98555.05
2019-01-09T16:08:03.477Z,98559.02
2019-01-09T16:10:33.238Z,98558.59
2019-01-09T16:13:02.847Z,98558.98
2019-01-09T16:15:32.858Z,98557.64
2019-01-09T16:18:02.572Z,98559.98
2019-01-09T16:20:32.227Z,98564.33
2019-01-09T16:23:01.809Z,98568.20
2019-01-09T16:25:31.368Z,98564.61
2019-01-09T16:28:00.987Z,98563.75
2019-01-09T16:30:35.036Z,98559.68
2019-01-09T16:33:10.508Z,98572.61
2019-01-09T16:35:40.055Z,98568.20
2019-01-09T16:38:09.649Z,98575.61
2019-01-09T16:40:39.280Z,98577.34
2019-01-09T16:43:08.833Z,98571.41
2019-01-09T16:45:38.479Z,98581.79
2019-01-09T16:48:11.191Z,98575.63
2019-01-09T16:50:43.672Z,98577.44
2019-01-09T16:53:13.241Z,98574.98
2019-01-09T16:55:42.848Z,98579.29
2019-01-09T16:58:12.491Z,98584.49
2019-01-09T17:00:44.744Z,98582.55
2019-01-09T17:03:14.370Z,98583.37
2019-01-09T17:05:43.982Z,98582.31
2019-01-09T17:08:13.573Z,98590.80
2019-01-09T17:10:43.245Z,98584.66
2019-01-09T17:13:12.859Z,98588.58
2019-01-09T17:15:42.510Z,98592.95
2019-01-09T17:18:12.217Z,98593.83
2019-01-09T17:20:47.731Z,98595.47
2019-01-09T17:23:17.373Z,98596.89
2019-01-09T17:25:54.335Z,98554.64
2019-01-09T17:28:25.495Z,98593.36
2019-01-09T17:30:55.308Z,98603.66
2019-01-09T17:33:24.897Z,98603.99
2019-01-09T17:35:54.564Z,98601.33
2019-01-09T17:38:25.738Z,98602.78
2019-01-09T17:40:55.554Z,98602.91
2019-01-09T17:43:25.173Z,98603.27
2019-01-09T17:45:54.761Z,98609.22
2019-01-09T17:48:27.286Z,98611.16
2019-01-09T17:50:56.953Z,98613.75
2019-01-09T17:53:26.611Z,98613.73
2019-01-09T17:55:56.195Z,98620.08
2019-01-09T17:58:25.784Z,98624.48
2019-01-09T18:00:55.408Z,98625.30
2019-01-09T18:03:27.886Z,98580.94
2019-01-09T18:05:57.800Z,98631.05
2019-01-09T18:08:33.220Z,98632.23
2019-01-09T18:11:02.852Z,98637.49
2019-01-09T18:13:32.426Z,98639.94
2019-01-09T18:16:02.004Z,98645.55
2019-01-09T18:18:31.598Z,98651.13
2019-01-09T18:21:01.485Z,98664.71
2019-01-09T18:23:31.072Z,98672.33
2019-01-09T18:26:00.681Z,98665.80
2019-01-09T18:28:30.238Z,98675.34
2019-01-09T18:31:05.927Z,98676.77
2019-01-09T18:33:40.009Z,98674.70
2019-01-09T18:36:14.034Z,98680.82
2019-01-09T18:38:48.121Z,98681.16
2019-01-09T18:41:22.155Z,98682.73
2019-01-09T18:43:56.292Z,98688.53
2019-01-09T18:46:30.307Z,98691.66
2019-01-09T18:49:04.384Z,98690.17
2019-01-09T18:51:38.404Z,98683.03
2019-01-09T18:54:07.991Z,98683.84
2019-01-09T18:56:37.579Z,98686.34
2019-01-09T18:59:07.473Z,98691.66
2019-01-09T19:01:39.829Z,98692.94
2019-01-09T19:04:09.565Z,98690.03
2019-01-09T19:06:38.998Z,98689.06
2019-01-09T19:09:10.863Z,98699.22
2019-01-09T19:11:40.549Z,98698.41
2019-01-09T19:14:10.269Z,98695.86
2019-01-09T19:16:39.851Z,98701.20
2019-01-09T19:19:12.633Z,98701.91
2019-01-09T19:21:42.668Z,98707.50
2019-01-09T19:24:12.413Z,98708.47
2019-01-09T19:26:43.523Z,98714.35
2019-01-09T19:29:13.337Z,98718.98
2019-01-09T19:31:43.227Z,98726.34
2019-01-09T19:34:14.761Z,98723.20
2019-01-09T19:36:44.490Z,98725.63
2019-01-09T19:39:14.202Z,98726.14
2019-01-09T19:41:44.264Z,98727.08
2019-01-09T19:44:13.868Z,98734.98
2019-01-09T19:46:43.699Z,98739.16
2019-01-09T19:49:13.357Z,98737.92
2019-01-09T19:51:42.936Z,98743.92
2019-01-09T19:54:12.539Z,98749.41
2019-01-09T19:56:42.767Z,98752.34
2019-01-09T19:59:12.364Z,98755.71
2019-01-09T20:01:41.960Z,98760.22
2019-01-09T20:04:11.533Z,98761.45
2019-01-09T20:06:41.117Z,98762.57
2019-01-09T20:09:12.623Z,98773.44
2019-01-09T20:11:42.619Z,98772.20
2019-01-09T20:14:12.462Z,98770.69
2019-01-09T20:16:42.022Z,98775.13
2019-01-09T20:19:11.725Z,98775.99
2019-01-09T20:21:41.347Z,98778.99
2019-01-09T20:24:10.979Z,98784.14
2019-01-09T20:26:40.746Z,98791.11
2019-01-09T20:29:10.573Z,98793.52
2019-01-09T20:31:40.136Z,98790.91
2019-01-09T20:34:09.716Z,98796.80
2019-01-09T20:36:39.382Z,98803.14
2019-01-09T20:39:09.757Z,98805.80
2019-01-09T20:41:39.396Z,98807.17
2019-01-09T20:44:09.155Z,98804.91
2019-01-09T20:46:38.768Z,98803.76
2019-01-09T20:49:08.465Z,98809.57
2019-01-09T20:51:57.299Z,98808.89
2019-01-09T20:54:26.897Z,98813.17
2019-01-09T20:56:56.432Z,98813.78
2019-01-09T20:59:27.533Z,98812.96
2019-01-09T21:01:57.091Z,98814.44
2019-01-09T21:04:26.731Z,98812.51
2019-01-09T21:06:56.377Z,98810.94
2019-01-09T21:09:26.262Z,98808.59
2019-01-09T21:11:55.850Z,98817.44
2019-01-09T21:14:25.435Z,98815.77
2019-01-09T21:16:54.971Z,98823.16
2019-01-09T21:19:24.552Z,98817.84
2019-01-09T21:21:56.824Z,98817.78
2019-01-09T21:24:26.875Z,98818.45
2019-01-09T21:26:56.675Z,98824.91
2019-01-09T21:29:26.415Z,98826.69
2019-01-09T21:32:15.353Z,98828.13
2019-01-09T21:34:45.974Z,98829.03
2019-01-09T21:37:16.824Z,98824.59
2019-01-09T21:39:46.840Z,98828.66
2019-01-09T21:42:16.435Z,98830.75
2019-01-09T21:44:47.288Z,98835.62
2019-01-09T21:47:17.101Z,98837.73
2019-01-09T21:49:46.664Z,98839.20
2019-01-09T21:52:16.229Z,98840.11
2019-01-09T21:54:45.817Z,98839.45
2019-01-09T21:57:15.374Z,98843.70
2019-01-09T21:59:45.037Z,98844.13
2019-01-09T22:02:17.060Z,98848.57
2019-01-09T22:04:46.638Z,98848.52
2019-01-09T22:07:16.213Z,98856.56
2019-01-09T22:09:46.219Z,98855.08
2019-01-09T22:12:16.352Z,98859.12
2019-01-09T22:14:46.016Z,98856.20
2019-01-09T22:17:17.551Z,98854.75
2019-01-09T22:19:47.310Z,98858.56
2019-01-09T22:22:16.960Z,98854.53
2019-01-09T22:24:48.296Z,98857.69
2019-01-09T22:27:19.320Z,98858.75
2019-01-09T22:29:48.879Z,98862.51
2019-01-09T22:32:18.939Z,98860.90
2019-01-09T22:34:49.060Z,98862.36
2019-01-09T22:37:18.651Z,98862.47
2019-01-09T22:39:48.304Z,98875.69
2019-01-09T22:42:20.025Z,98871.27
2019-01-09T22:44:49.413Z,98873.84
2019-01-09T22:47:19.024Z,98878.16
2019-01-09T22:49:48.620Z,98880.20
2019-01-09T22:52:19.231Z,98874.39
2019-01-09T22:54:49.016Z,98877.30
2019-01-09T22:57:18.577Z,98877.33
2019-01-09T22:59:49.696Z,98877.83
2019-01-09T23:02:20.888Z,98883.78
2019-01-09T23:04:51.992Z,98884.24
2019-01-09T23:07:21.577Z,98885.09
2019-01-09T23:09:51.239Z,98884.45
2019-01-09T23:12:22.940Z,98886.38
2019-01-09T23:14:52.533Z,98896.03
2019-01-09T23:17:22.211Z,98883.95
2019-01-09T23:19:51.814Z,98880.64
2019-01-09T23:22:21.457Z,98889.20
2019-01-09T23:25:10.519Z,98888.84
2019-01-09T23:27:40.128Z,98895.59
2019-01-09T23:30:12.906Z,98897.92
2019-01-09T23:32:43.061Z,98894.55
2019-01-09T23:35:14.566Z,98903.77
2019-01-09T23:37:44.279Z,98896.91
2019-01-09T23:40:16.869Z,98898.08
2019-01-09T23:42:46.795Z,98898.89
2019-01-09T23:45:16.710Z,98898.58
2019-01-09T23:47:46.348Z,98900.30
2019-01-09T23:50:17.778Z,98902.74
2019-01-09T23:52:47.363Z,98910.09
2019-01-09T23:55:22.985Z,98857.13
2019-01-09T23:57:52.574Z,98911.34
